sensor_id;sensor_type;location;lat;lon;timestamp;pressure;altitude;pressure_sealevel;temperature;humidity
11198;BME280;5655;48.744;9.162;2023-05-02T00:00:25;96134.38;;;11.66;100.00
11198;BME280;5655;48.744;9.162;2023-05-02T00:02:51;96135.16;;;11.70;100.00
11198;BME280;5655;48.744;9.162;2023-05-02T00:05:16;96132.16;;;11.75;100.00
11198;BME280;5655;48.744;9.162;2023-05-02T00:07:42;96131.81;;;11.80;100.00
11198;BME280;5655;48.744;9.162;2023-05-02T00:10:07;96138.75;;;11.95;100.00
11198;BME280;5655;48.744;9.162;2023-05-02T00:12:33;96141.03;;;11.86;100.00
11198;BME280;5655;48.744;9.162;2023-05-02T00:14:58;96133.34;;;11.81;100.00
11198;BME280;5655;48.744;9.162;2023-05-02T00:17:24;96129.91;;;11.84;100.00
11198;BME280;5655;48.744;9.162;2023-05-02T00:19:49;96137.97;;;11.91;100.00
11198;BME280;5655;48.744;9.162;2023-05-02T00:22:14;96133.28;;;11.74;100.00
11198;BME280;5655;48.744;9.162;2023-05-02T00:24:40;96126.78;;;11.75;100.00
11198;BME280;5655;48.744;9.162;2023-05-02T00:27:05;96127.44;;;11.54;100.00
11198;BME280;5655;48.744;9.162;2023-05-02T00:29:31;96131.25;;;11.57;100.00
11198;BME280;5655;48.744;9.162;2023-05-02T00:31:56;96125.81;;;11.43;100.00
11198;BME280;5655;48.744;9.162;2023-05-02T00:34:23;96121.19;;;11.39;100.00
11198;BME280;5655;48.744;9.162;2023-05-02T00:36:48;96122.75;;;11.44;100.00
11198;BME280;5655;48.744;9.162;2023-05-02T00:39:14;96126.97;;;11.42;100.00
11198;BME280;5655;48.744;9.162;2023-05-02T00:41:39;96128.38;;;11.25;100.00
11198;BME280;5655;48.744;9.162;2023-05-02T00:44:04;96122.69;;;11.33;100.00
11198;BME280;5655;48.744;9.162;2023-05-02T00:46:30;96128.88;;;11.45;100.00
11198;BME280;5655;48.744;9.162;2023-05-02T00:48:55;96121.94;;;11.36;100.00
11198;BME280;5655;48.744;9.162;2023-05-02T00:51:20;96126.19;;;11.37;100.00
11198;BME280;5655;48.744;9.162;2023-05-02T00:53:46;96119.47;;;11.10;100.00
11198;BME280;5655;48.744;9.162;2023-05-02T00:56:12;96115.34;;;11.23;100.00
11198;BME280;5655;48.744;9.162;2023-05-02T00:58:37;96129.59;;;11.34;100.00
11198;BME280;5655;48.744;9.162;2023-05-02T01:12:26;96133.41;;;11.30;100.00
11198;BME280;5655;48.744;9.162;2023-05-02T01:14:55;96132.47;;;11.08;100.00
11198;BME280;5655;48.744;9.162;2023-05-02T01:17:24;96130.13;;;11.03;100.00
11198;BME280;5655;48.744;9.162;2023-05-02T01:19:52;96134.41;;;11.11;100.00
11198;BME280;5655;48.744;9.162;2023-05-02T01:22:21;96132.88;;;11.14;100.00
11198;BME280;5655;48.744;9.162;2023-05-02T01:27:50;96149.16;;;11.38;100.00
11198;BME280;5655;48.744;9.162;2023-05-02T01:30:21;96140.81;;;11.00;100.00
11198;BME280;5655;48.744;9.162;2023-05-02T01:32:50;96149.41;;;11.23;100.00
11198;BME280;5655;48.744;9.162;2023-05-02T01:35:17;96145.44;;;11.06;100.00
11198;BME280;5655;48.744;9.162;2023-05-02T01:37:45;96145.69;;;11.38;100.00
11198;BME280;5655;48.744;9.162;2023-05-02T01:40:13;96147.19;;;11.35;100.00
11198;BME280;5655;48.744;9.162;2023-05-02T01:42:41;96151.09;;;11.42;100.00
11198;BME280;5655;48.744;9.162;2023-05-02T01:45:09;96153.44;;;11.50;100.00
11198;BME280;5655;48.744;9.162;2023-05-02T01:47:35;96153.31;;;11.32;100.00
11198;BME280;5655;48.744;9.162;2023-05-02T01:50:06;96150.31;;;11.45;100.00
11198;BME280;5655;48.744;9.162;2023-05-02T01:52:33;96151.69;;;11.17;100.00
11198;BME280;5655;48.744;9.162;2023-05-02T01:55:00;96148.19;;;11.13;100.00
11198;BME280;5655;48.744;9.162;2023-05-02T01:57:26;96149.75;;;11.18;100.00
11198;BME280;5655;48.744;9.162;2023-05-02T01:59:54;96154.88;;;11.37;100.00
11198;BME280;5655;48.744;9.162;2023-05-02T02:02:23;96156.41;;;11.34;100.00
11198;BME280;5655;48.744;9.162;2023-05-02T02:04:55;96154.06;;;11.29;100.00
11198;BME280;5655;48.744;9.162;2023-05-02T02:07:21;96144.53;;;10.88;100.00
11198;BME280;5655;48.744;9.162;2023-05-02T02:09:47;96142.94;;;10.80;100.00
11198;BME280;5655;48.744;9.162;2023-05-02T02:12:22;96148.53;;;11.08;100.00
11198;BME280;5655;48.744;9.162;2023-05-02T02:20:20;96152.63;;;10.95;100.00
11198;BME280;5655;48.744;9.162;2023-05-02T02:22:46;96163.28;;;10.88;100.00
11198;BME280;5655;48.744;9.162;2023-05-02T02:25:14;96158.22;;;10.79;100.00
11198;BME280;5655;48.744;9.162;2023-05-02T02:27:40;96175.06;;;10.80;100.00
11198;BME280;5655;48.744;9.162;2023-05-02T02:30:07;96174.06;;;10.95;100.00
11198;BME280;5655;48.744;9.162;2023-05-02T02:32:33;96167.06;;;10.83;100.00
11198;BME280;5655;48.744;9.162;2023-05-02T02:34:59;96171.31;;;10.88;100.00
11198;BME280;5655;48.744;9.162;2023-05-02T02:37:30;96176.03;;;11.02;100.00
11198;BME280;5655;48.744;9.162;2023-05-02T02:40:27;96179.13;;;11.07;100.00
11198;BME280;5655;48.744;9.162;2023-05-02T02:43:11;96186.75;;;11.05;100.00
11198;BME280;5655;48.744;9.162;2023-05-02T02:48:21;96182.69;;;10.78;100.00
11198;BME280;5655;48.744;9.162;2023-05-02T02:50:58;96175.16;;;10.54;100.00
11198;BME280;5655;48.744;9.162;2023-05-02T02:53:32;96184.75;;;10.55;100.00
11198;BME280;5655;48.744;9.162;2023-05-02T02:56:06;96183.53;;;10.85;100.00
11198;BME280;5655;48.744;9.162;2023-05-02T02:59:03;96190.50;;;10.97;100.00
11198;BME280;5655;48.744;9.162;2023-05-02T03:01:31;96195.28;;;10.74;100.00
11198;BME280;5655;48.744;9.162;2023-05-02T03:03:57;96203.97;;;10.64;100.00
11198;BME280;5655;48.744;9.162;2023-05-02T03:06:23;96201.94;;;10.54;100.00
11198;BME280;5655;48.744;9.162;2023-05-02T03:08:49;96214.03;;;10.74;100.00
11198;BME280;5655;48.744;9.162;2023-05-02T03:11:14;96222.78;;;10.74;100.00
11198;BME280;5655;48.744;9.162;2023-05-02T03:13:40;96214.06;;;10.81;100.00
11198;BME280;5655;48.744;9.162;2023-05-02T03:16:34;96218.78;;;10.91;100.00
11198;BME280;5655;48.744;9.162;2023-05-02T03:19:01;96224.72;;;10.74;100.00
11198;BME280;5655;48.744;9.162;2023-05-02T03:21:27;96214.72;;;10.71;100.00
11198;BME280;5655;48.744;9.162;2023-05-02T03:23:53;96220.31;;;10.92;100.00
11198;BME280;5655;48.744;9.162;2023-05-02T03:26:19;96228.75;;;10.94;100.00
11198;BME280;5655;48.744;9.162;2023-05-02T03:28:45;96231.16;;;11.06;100.00
11198;BME280;5655;48.744;9.162;2023-05-02T03:31:11;96234.97;;;11.05;100.00
11198;BME280;5655;48.744;9.162;2023-05-02T03:33:37;96234.38;;;11.22;100.00
11198;BME280;5655;48.744;9.162;2023-05-02T03:36:02;96240.00;;;11.10;100.00
11198;BME280;5655;48.744;9.162;2023-05-02T03:38:28;96248.44;;;11.12;100.00
11198;BME280;5655;48.744;9.162;2023-05-02T03:40:56;96248.50;;;11.19;100.00
11198;BME280;5655;48.744;9.162;2023-05-02T03:43:21;96250.66;;;11.03;100.00
11198;BME280;5655;48.744;9.162;2023-05-02T03:45:46;96250.22;;;11.01;100.00
11198;BME280;5655;48.744;9.162;2023-05-02T03:48:12;96260.16;;;11.01;100.00
11198;BME280;5655;48.744;9.162;2023-05-02T03:50:37;96259.63;;;11.21;100.00
11198;BME280;5655;48.744;9.162;2023-05-02T03:53:02;96263.03;;;11.18;100.00
11198;BME280;5655;48.744;9.162;2023-05-02T03:55:28;96267.16;;;11.09;100.00
11198;BME280;5655;48.744;9.162;2023-05-02T03:57:53;96269.53;;;11.17;100.00
11198;BME280;5655;48.744;9.162;2023-05-02T04:00:19;96272.53;;;11.09;100.00
11198;BME280;5655;48.744;9.162;2023-05-02T04:02:44;96272.56;;;11.12;100.00
11198;BME280;5655;48.744;9.162;2023-05-02T04:05:09;96274.22;;;11.27;100.00
11198;BME280;5655;48.744;9.162;2023-05-02T04:07:35;96280.25;;;11.17;100.00
11198;BME280;5655;48.744;9.162;2023-05-02T04:10:00;96285.41;;;11.36;100.00
11198;BME280;5655;48.744;9.162;2023-05-02T04:12:25;96288.03;;;11.29;100.00
11198;BME280;5655;48.744;9.162;2023-05-02T04:14:51;96285.19;;;11.15;100.00
11198;BME280;5655;48.744;9.162;2023-05-02T04:17:16;96291.84;;;11.28;100.00
11198;BME280;5655;48.744;9.162;2023-05-02T04:19:41;96296.44;;;11.31;100.00
11198;BME280;5655;48.744;9.162;2023-05-02T04:22:07;96296.53;;;11.38;100.00
11198;BME280;5655;48.744;9.162;2023-05-02T04:24:32;96301.22;;;11.49;100.00
11198;BME280;5655;48.744;9.162;2023-05-02T04:26:57;96299.56;;;11.37;100.00
11198;BME280;5655;48.744;9.162;2023-05-02T04:29:23;96301.59;;;11.47;100.00
11198;BME280;5655;48.744;9.162;2023-05-02T04:31:48;96305.09;;;11.55;100.00
11198;BME280;5655;48.744;9.162;2023-05-02T04:34:15;96299.66;;;11.48;100.00
11198;BME280;5655;48.744;9.162;2023-05-02T04:36:40;96305.44;;;11.50;100.00
11198;BME280;5655;48.744;9.162;2023-05-02T04:39:06;96308.78;;;11.39;100.00
11198;BME280;5655;48.744;9.162;2023-05-02T04:41:32;96306.56;;;11.49;100.00
11198;BME280;5655;48.744;9.162;2023-05-02T04:43:58;96301.94;;;11.46;100.00
11198;BME280;5655;48.744;9.162;2023-05-02T04:46:23;96313.75;;;11.37;100.00
11198;BME280;5655;48.744;9.162;2023-05-02T04:48:48;96301.75;;;11.24;100.00
11198;BME280;5655;48.744;9.162;2023-05-02T04:51:14;96303.03;;;11.37;100.00
11198;BME280;5655;48.744;9.162;2023-05-02T04:53:39;96312.94;;;11.33;100.00
11198;BME280;5655;48.744;9.162;2023-05-02T04:56:05;96314.28;;;11.54;100.00
11198;BME280;5655;48.744;9.162;2023-05-02T04:58:31;96322.16;;;11.36;100.00
11198;BME280;5655;48.744;9.162;2023-05-02T05:00:56;96320.97;;;11.33;100.00
11198;BME280;5655;48.744;9.162;2023-05-02T05:03:21;96319.56;;;11.43;100.00
11198;BME280;5655;48.744;9.162;2023-05-02T05:05:47;96323.03;;;11.47;100.00
11198;BME280;5655;48.744;9.162;2023-05-02T05:08:12;96322.22;;;11.43;100.00
11198;BME280;5655;48.744;9.162;2023-05-02T05:10:37;96332.97;;;11.47;100.00
11198;BME280;5655;48.744;9.162;2023-05-02T05:13:04;96327.19;;;11.41;100.00
11198;BME280;5655;48.744;9.162;2023-05-02T05:15:30;96336.94;;;11.60;100.00
11198;BME280;5655;48.744;9.162;2023-05-02T05:17:55;96341.84;;;11.54;100.00
11198;BME280;5655;48.744;9.162;2023-05-02T05:20:20;96349.44;;;11.49;100.00
11198;BME280;5655;48.744;9.162;2023-05-02T05:22:46;96345.50;;;11.35;100.00
11198;BME280;5655;48.744;9.162;2023-05-02T05:25:11;96348.56;;;11.34;100.00
11198;BME280;5655;48.744;9.162;2023-05-02T05:27:37;96354.94;;;11.59;100.00
11198;BME280;5655;48.744;9.162;2023-05-02T05:30:03;96366.13;;;11.31;100.00
11198;BME280;5655;48.744;9.162;2023-05-02T05:32:29;96361.53;;;11.32;100.00
11198;BME280;5655;48.744;9.162;2023-05-02T05:34:54;96365.97;;;11.17;100.00
11198;BME280;5655;48.744;9.162;2023-05-02T05:37:20;96371.41;;;11.24;100.00
11198;BME280;5655;48.744;9.162;2023-05-02T05:39:46;96379.41;;;11.58;100.00
11198;BME280;5655;48.744;9.162;2023-05-02T05:42:11;96381.66;;;11.52;100.00
11198;BME280;5655;48.744;9.162;2023-05-02T05:44:37;96390.88;;;11.55;100.00
11198;BME280;5655;48.744;9.162;2023-05-02T05:47:02;96390.22;;;11.65;100.00
11198;BME280;5655;48.744;9.162;2023-05-02T05:49:28;96393.38;;;11.74;100.00
11198;BME280;5655;48.744;9.162;2023-05-02T05:51:53;96397.63;;;11.78;100.00
11198;BME280;5655;48.744;9.162;2023-05-02T05:54:19;96395.41;;;11.84;100.00
11198;BME280;5655;48.744;9.162;2023-05-02T05:56:44;96402.03;;;11.97;100.00
11198;BME280;5655;48.744;9.162;2023-05-02T05:59:10;96397.28;;;11.80;100.00
11198;BME280;5655;48.744;9.162;2023-05-02T06:01:35;96401.50;;;11.81;100.00
11198;BME280;5655;48.744;9.162;2023-05-02T06:04:00;96399.53;;;11.78;100.00
11198;BME280;5655;48.744;9.162;2023-05-02T06:06:27;96404.59;;;11.87;100.00
11198;BME280;5655;48.744;9.162;2023-05-02T06:08:53;96399.53;;;11.78;100.00
11198;BME280;5655;48.744;9.162;2023-05-02T06:11:18;96408.84;;;11.88;100.00
11198;BME280;5655;48.744;9.162;2023-05-02T06:13:44;96422.03;;;12.03;100.00
11198;BME280;5655;48.744;9.162;2023-05-02T06:16:09;96418.94;;;12.05;100.00
11198;BME280;5655;48.744;9.162;2023-05-02T06:18:34;96427.09;;;12.12;100.00
11198;BME280;5655;48.744;9.162;2023-05-02T06:21:04;96431.56;;;12.45;100.00
11198;BME280;5655;48.744;9.162;2023-05-02T06:23:29;96442.63;;;12.40;100.00
11198;BME280;5655;48.744;9.162;2023-05-02T06:25:58;96442.19;;;12.34;100.00
11198;BME280;5655;48.744;9.162;2023-05-02T06:28:23;96445.16;;;12.22;100.00
11198;BME280;5655;48.744;9.162;2023-05-02T06:30:58;96449.59;;;12.51;100.00
11198;BME280;5655;48.744;9.162;2023-05-02T06:33:25;96451.34;;;12.26;100.00
11198;BME280;5655;48.744;9.162;2023-05-02T06:35:51;96460.44;;;12.14;100.00
11198;BME280;5655;48.744;9.162;2023-05-02T06:38:17;96460.59;;;12.32;100.00
11198;BME280;5655;48.744;9.162;2023-05-02T06:40:42;96460.38;;;12.07;100.00
11198;BME280;5655;48.744;9.162;2023-05-02T06:43:09;96466.03;;;12.43;100.00
11198;BME280;5655;48.744;9.162;2023-05-02T06:45:35;96471.03;;;12.41;100.00
11198;BME280;5655;48.744;9.162;2023-05-02T06:48:00;96477.19;;;12.45;100.00
11198;BME280;5655;48.744;9.162;2023-05-02T06:50:25;96476.97;;;12.64;100.00
11198;BME280;5655;48.744;9.162;2023-05-02T06:52:51;96476.41;;;12.44;100.00
11198;BME280;5655;48.744;9.162;2023-05-02T06:55:16;96485.34;;;12.59;100.00
11198;BME280;5655;48.744;9.162;2023-05-02T06:57:41;96488.53;;;12.75;100.00
11198;BME280;5655;48.744;9.162;2023-05-02T07:00:08;96480.19;;;12.36;100.00
11198;BME280;5655;48.744;9.162;2023-05-02T07:02:33;96480.63;;;12.42;100.00
11198;BME280;5655;48.744;9.162;2023-05-02T07:04:59;96479.22;;;12.58;100.00
11198;BME280;5655;48.744;9.162;2023-05-02T07:07:24;96500.72;;;12.62;100.00
11198;BME280;5655;48.744;9.162;2023-05-02T07:09:50;96496.72;;;12.42;100.00
11198;BME280;5655;48.744;9.162;2023-05-02T07:12:16;96497.66;;;12.63;100.00
11198;BME280;5655;48.744;9.162;2023-05-02T07:14:41;96499.41;;;12.42;100.00
11198;BME280;5655;48.744;9.162;2023-05-02T07:17:07;96501.31;;;12.41;100.00
11198;BME280;5655;48.744;9.162;2023-05-02T07:19:33;96501.47;;;12.59;100.00
11198;BME280;5655;48.744;9.162;2023-05-02T07:21:58;96514.63;;;12.74;100.00
11198;BME280;5655;48.744;9.162;2023-05-02T07:24:23;96509.06;;;12.50;100.00
11198;BME280;5655;48.744;9.162;2023-05-02T07:26:48;96515.22;;;12.54;100.00
11198;BME280;5655;48.744;9.162;2023-05-02T07:29:14;96517.66;;;12.25;100.00
11198;BME280;5655;48.744;9.162;2023-05-02T07:31:39;96521.28;;;12.44;100.00
11198;BME280;5655;48.744;9.162;2023-05-02T07:34:05;96508.97;;;12.43;100.00
11198;BME280;5655;48.744;9.162;2023-05-02T07:36:30;96520.66;;;12.64;100.00
11198;BME280;5655;48.744;9.162;2023-05-02T07:38:57;96516.94;;;12.76;100.00
11198;BME280;5655;48.744;9.162;2023-05-02T07:41:22;96513.00;;;12.63;100.00
11198;BME280;5655;48.744;9.162;2023-05-02T07:43:47;96503.25;;;12.44;100.00
11198;BME280;5655;48.744;9.162;2023-05-02T07:46:13;96506.06;;;12.58;100.00
11198;BME280;5655;48.744;9.162;2023-05-02T07:48:38;96509.28;;;12.82;100.00
11198;BME280;5655;48.744;9.162;2023-05-02T07:51:08;96506.09;;;13.16;100.00
11198;BME280;5655;48.744;9.162;2023-05-02T07:53:33;96531.06;;;13.17;100.00
11198;BME280;5655;48.744;9.162;2023-05-02T07:55:59;96530.69;;;13.18;100.00
11198;BME280;5655;48.744;9.162;2023-05-02T07:58:24;96526.59;;;12.84;100.00
11198;BME280;5655;48.744;9.162;2023-05-02T08:00:50;96543.50;;;13.43;100.00
11198;BME280;5655;48.744;9.162;2023-05-02T08:03:15;96537.03;;;12.96;100.00
11198;BME280;5655;48.744;9.162;2023-05-02T08:05:40;96529.50;;;13.12;100.00
11198;BME280;5655;48.744;9.162;2023-05-02T08:08:06;96541.91;;;13.31;100.00
11198;BME280;5655;48.744;9.162;2023-05-02T08:10:31;96553.34;;;13.21;100.00
11198;BME280;5655;48.744;9.162;2023-05-02T08:12:57;96543.00;;;13.20;100.00
11198;BME280;5655;48.744;9.162;2023-05-02T08:15:22;96550.94;;;13.05;100.00
11198;BME280;5655;48.744;9.162;2023-05-02T08:17:47;96556.00;;;13.14;100.00
11198;BME280;5655;48.744;9.162;2023-05-02T08:20:12;96554.84;;;13.11;100.00
11198;BME280;5655;48.744;9.162;2023-05-02T08:22:38;96556.78;;;13.14;100.00
11198;BME280;5655;48.744;9.162;2023-05-02T08:25:03;96559.06;;;13.12;100.00
11198;BME280;5655;48.744;9.162;2023-05-02T08:27:29;96558.75;;;13.25;100.00
11198;BME280;5655;48.744;9.162;2023-05-02T08:29:54;96563.44;;;13.35;100.00
11198;BME280;5655;48.744;9.162;2023-05-02T08:32:19;96571.97;;;13.51;100.00
11198;BME280;5655;48.744;9.162;2023-05-02T08:34:46;96577.63;;;13.28;100.00
11198;BME280;5655;48.744;9.162;2023-05-02T08:37:11;96571.81;;;13.26;100.00
11198;BME280;5655;48.744;9.162;2023-05-02T08:39:37;96568.00;;;13.31;100.00
11198;BME280;5655;48.744;9.162;2023-05-02T08:42:06;96572.81;;;13.62;100.00
11198;BME280;5655;48.744;9.162;2023-05-02T08:44:32;96561.16;;;13.37;100.00
11198;BME280;5655;48.744;9.162;2023-05-02T08:46:58;96572.81;;;13.62;100.00
11198;BME280;5655;48.744;9.162;2023-05-02T08:49:24;96576.66;;;13.68;100.00
11198;BME280;5655;48.744;9.162;2023-05-02T08:51:52;96588.72;;;14.02;100.00
11198;BME280;5655;48.744;9.162;2023-05-02T08:54:19;96588.06;;;14.27;100.00
11198;BME280;5655;48.744;9.162;2023-05-02T08:56:46;96592.72;;;14.37;100.00
11198;BME280;5655;48.744;9.162;2023-05-02T08:59:11;96596.09;;;14.16;100.00
11198;BME280;5655;48.744;9.162;2023-05-02T09:01:40;96598.38;;;14.07;100.00
11198;BME280;5655;48.744;9.162;2023-05-02T09:04:05;96606.47;;;14.11;100.00
11198;BME280;5655;48.744;9.162;2023-05-02T09:06:31;96599.03;;;13.79;100.00
11198;BME280;5655;48.744;9.162;2023-05-02T09:08:59;96607.63;;;14.20;100.00
11198;BME280;5655;48.744;9.162;2023-05-02T09:11:24;96626.22;;;14.39;100.00
11198;BME280;5655;48.744;9.162;2023-05-02T09:13:51;96623.16;;;14.51;100.00
11198;BME280;5655;48.744;9.162;2023-05-02T09:16:21;96649.03;;;14.98;100.00
11198;BME280;5655;48.744;9.162;2023-05-02T09:18:48;96627.78;;;14.54;100.00
11198;BME280;5655;48.744;9.162;2023-05-02T09:21:16;96645.56;;;15.09;100.00
11198;BME280;5655;48.744;9.162;2023-05-02T09:28:49;96638.63;;;15.01;100.00
11198;BME280;5655;48.744;9.162;2023-05-02T09:31:17;96642.09;;;15.26;100.00
11198;BME280;5655;48.744;9.162;2023-05-02T09:33:44;96638.25;;;15.09;100.00
11198;BME280;5655;48.744;9.162;2023-05-02T09:36:15;96643.28;;;15.14;100.00
11198;BME280;5655;48.744;9.162;2023-05-02T09:38:42;96644.03;;;15.29;100.00
11198;BME280;5655;48.744;9.162;2023-05-02T09:41:07;96635.16;;;15.04;100.00
11198;BME280;5655;48.744;9.162;2023-05-02T09:43:33;96639.41;;;15.33;100.00
11198;BME280;5655;48.744;9.162;2023-05-02T09:46:03;96648.66;;;15.39;100.00
11198;BME280;5655;48.744;9.162;2023-05-02T09:48:30;96648.66;;;15.18;100.00
11198;BME280;5655;48.744;9.162;2023-05-02T09:50:56;96651.34;;;15.39;100.00
11198;BME280;5655;48.744;9.162;2023-05-02T09:53:26;96655.97;;;15.70;100.00
11198;BME280;5655;48.744;9.162;2023-05-02T09:56:02;96649.63;;;16.23;100.00
11198;BME280;5655;48.744;9.162;2023-05-02T09:58:28;96645.53;;;15.83;100.00
11198;BME280;5655;48.744;9.162;2023-05-02T10:00:55;96648.47;;;16.27;100.00
11198;BME280;5655;48.744;9.162;2023-05-02T10:03:23;96654.13;;;16.65;100.00
11198;BME280;5655;48.744;9.162;2023-05-02T10:05:49;96663.34;;;16.71;100.00
11198;BME280;5655;48.744;9.162;2023-05-02T10:08:17;96666.81;;;16.71;100.00
11198;BME280;5655;48.744;9.162;2023-05-02T10:10:46;96664.66;;;16.31;100.00
11198;BME280;5655;48.744;9.162;2023-05-02T10:13:16;96671.66;;;16.14;100.00
11198;BME280;5655;48.744;9.162;2023-05-02T10:15:44;96673.16;;;16.33;100.00
11198;BME280;5655;48.744;9.162;2023-05-02T10:18:13;96667.81;;;16.99;100.00
11198;BME280;5655;48.744;9.162;2023-05-02T10:20:47;96675.06;;;17.09;100.00
11198;BME280;5655;48.744;9.162;2023-05-02T10:23:18;96672.06;;;17.00;100.00
11198;BME280;5655;48.744;9.162;2023-05-02T10:25:45;96678.34;;;16.79;100.00
11198;BME280;5655;48.744;9.162;2023-05-02T10:28:10;96684.38;;;17.04;100.00
11198;BME280;5655;48.744;9.162;2023-05-02T10:30:38;96674.81;;;17.44;100.00
11198;BME280;5655;48.744;9.162;2023-05-02T10:33:04;96675.06;;;17.09;100.00
11198;BME280;5655;48.744;9.162;2023-05-02T10:35:30;96681.03;;;17.41;100.00
11198;BME280;5655;48.744;9.162;2023-05-02T10:37:57;96673.19;;;17.54;100.00
11198;BME280;5655;48.744;9.162;2023-05-02T10:40:24;96668.63;;;17.47;100.00
11198;BME280;5655;48.744;9.162;2023-05-02T10:42:50;96668.75;;;17.30;100.00
11198;BME280;5655;48.744;9.162;2023-05-02T10:45:36;96670.84;;;17.59;100.00
11198;BME280;5655;48.744;9.162;2023-05-02T10:48:24;96669.06;;;17.83;100.00
11198;BME280;5655;48.744;9.162;2023-05-02T10:50:55;96665.88;;;17.92;100.00
11198;BME280;5655;48.744;9.162;2023-05-02T10:53:28;96661.41;;;18.46;100.00
11198;BME280;5655;48.744;9.162;2023-05-02T10:56:11;96653.59;;;18.51;100.00
11198;BME280;5655;48.744;9.162;2023-05-02T10:58:37;96658.84;;;18.01;100.00
11198;BME280;5655;48.744;9.162;2023-05-02T11:04:06;96662.59;;;18.11;100.00
11198;BME280;5655;48.744;9.162;2023-05-02T11:11:47;96652.56;;;18.08;100.00
11198;BME280;5655;48.744;9.162;2023-05-02T11:19:24;96656.16;;;17.98;100.00
11198;BME280;5655;48.744;9.162;2023-05-02T11:21:50;96655.41;;;17.53;100.00
11198;BME280;5655;48.744;9.162;2023-05-02T11:24:40;96655.31;;;17.67;100.00
11198;BME280;5655;48.744;9.162;2023-05-02T11:30:02;96654.69;;;17.45;100.00
11198;BME280;5655;48.744;9.162;2023-05-02T11:35:29;96659.03;;;17.36;100.00
11198;BME280;5655;48.744;9.162;2023-05-02T11:38:03;96651.59;;;17.47;100.00
11198;BME280;5655;48.744;9.162;2023-05-02T11:40:30;96654.03;;;17.34;100.00
11198;BME280;5655;48.744;9.162;2023-05-02T11:42:57;96647.19;;;18.04;100.00
11198;BME280;5655;48.744;9.162;2023-05-02T11:45:35;96645.84;;;18.53;100.00
11198;BME280;5655;48.744;9.162;2023-05-02T11:48:03;96640.41;;;18.84;100.00
11198;BME280;5655;48.744;9.162;2023-05-02T11:50:28;96657.66;;;18.97;100.00
11198;BME280;5655;48.744;9.162;2023-05-02T11:52:54;96644.81;;;18.10;100.00
11198;BME280;5655;48.744;9.162;2023-05-02T11:55:20;96654.34;;;18.55;100.00
11198;BME280;5655;48.744;9.162;2023-05-02T11:57:45;96645.94;;;18.46;100.00
11198;BME280;5655;48.744;9.162;2023-05-02T12:00:11;96644.19;;;18.63;100.00
11198;BME280;5655;48.744;9.162;2023-05-02T12:02:45;96650.72;;;19.42;100.00
11198;BME280;5655;48.744;9.162;2023-05-02T12:05:14;96659.13;;;19.52;100.00
11198;BME280;5655;48.744;9.162;2023-05-02T12:10:08;96652.03;;;19.81;100.00
11198;BME280;5655;48.744;9.162;2023-05-02T12:12:35;96656.03;;;19.96;100.00
11198;BME280;5655;48.744;9.162;2023-05-02T12:15:04;96651.69;;;19.79;100.00
11198;BME280;5655;48.744;9.162;2023-05-02T12:17:31;96655.28;;;19.72;100.00
11198;BME280;5655;48.744;9.162;2023-05-02T12:19:58;96652.03;;;18.84;100.00
11198;BME280;5655;48.744;9.162;2023-05-02T12:22:24;96658.22;;;18.51;100.00
11198;BME280;5655;48.744;9.162;2023-05-02T12:24:50;96654.25;;;17.95;100.00
11198;BME280;5655;48.744;9.162;2023-05-02T12:27:17;96656.47;;;18.03;100.00
11198;BME280;5655;48.744;9.162;2023-05-02T12:29:44;96657.81;;;18.22;100.00
11198;BME280;5655;48.744;9.162;2023-05-02T12:32:11;96657.72;;;18.90;100.00
11198;BME280;5655;48.744;9.162;2023-05-02T12:34:37;96655.97;;;19.30;100.00
11198;BME280;5655;48.744;9.162;2023-05-02T12:37:03;96656.06;;;18.99;100.00
11198;BME280;5655;48.744;9.162;2023-05-02T12:39:35;96649.81;;;19.53;100.00
11198;BME280;5655;48.744;9.162;2023-05-02T12:42:11;96656.53;;;19.68;100.00
11198;BME280;5655;48.744;9.162;2023-05-02T12:44:38;96655.59;;;19.78;100.00
11198;BME280;5655;48.744;9.162;2023-05-02T12:47:04;96653.97;;;19.34;100.00
11198;BME280;5655;48.744;9.162;2023-05-02T12:49:30;96661.41;;;19.03;100.00
11198;BME280;5655;48.744;9.162;2023-05-02T12:51:55;96666.13;;;18.99;100.00
11198;BME280;5655;48.744;9.162;2023-05-02T12:54:21;96664.16;;;18.73;100.00
11198;BME280;5655;48.744;9.162;2023-05-02T12:56:46;96655.88;;;18.56;100.00
11198;BME280;5655;48.744;9.162;2023-05-02T12:59:32;96663.56;;;18.62;100.00
11198;BME280;5655;48.744;9.162;2023-05-02T13:01:58;96656.56;;;18.91;100.00
11198;BME280;5655;48.744;9.162;2023-05-02T13:04:36;96660.00;;;18.95;100.00
11198;BME280;5655;48.744;9.162;2023-05-02T13:07:02;96663.66;;;18.54;100.00
11198;BME280;5655;48.744;9.162;2023-05-02T13:09:28;96665.13;;;17.91;100.00
11198;BME280;5655;48.744;9.162;2023-05-02T13:11:53;96658.88;;;17.98;100.00
11198;BME280;5655;48.744;9.162;2023-05-02T13:14:18;96662.31;;;18.02;100.00
11198;BME280;5655;48.744;9.162;2023-05-02T13:16:44;96659.50;;;18.09;100.00
11198;BME280;5655;48.744;9.162;2023-05-02T13:19:09;96666.22;;;18.31;100.00
11198;BME280;5655;48.744;9.162;2023-05-02T13:21:34;96673.72;;;17.83;100.00
11198;BME280;5655;48.744;9.162;2023-05-02T13:24:00;96675.72;;;18.16;100.00
11198;BME280;5655;48.744;9.162;2023-05-02T13:26:28;96663.44;;;18.04;100.00
11198;BME280;5655;48.744;9.162;2023-05-02T13:28:53;96675.09;;;18.01;100.00
11198;BME280;5655;48.744;9.162;2023-05-02T13:31:20;96672.56;;;18.18;100.00
11198;BME280;5655;48.744;9.162;2023-05-02T13:33:45;96666.09;;;18.08;100.00
11198;BME280;5655;48.744;9.162;2023-05-02T13:36:10;96663.25;;;17.85;100.00
11198;BME280;5655;48.744;9.162;2023-05-02T13:38:36;96654.09;;;18.09;100.00
11198;BME280;5655;48.744;9.162;2023-05-02T13:41:01;96665.22;;;18.18;100.00
11198;BME280;5655;48.744;9.162;2023-05-02T13:43:26;96648.53;;;18.84;100.00
11198;BME280;5655;48.744;9.162;2023-05-02T13:45:51;96660.47;;;18.59;100.00
11198;BME280;5655;48.744;9.162;2023-05-02T13:48:17;96655.81;;;18.64;100.00